CDT,Max TemperatureF,Mean TemperatureF,Min TemperatureF,Max Dew PointF,MeanDew PointF,Min DewpointF,Max Humidity, Mean Humidity, Min Humidity, Max Sea Level PressureIn, Mean Sea Level PressureIn, Min Sea Level PressureIn, Max VisibilityMiles, Mean VisibilityMiles, Min VisibilityMiles, Max Wind SpeedMPH, Mean Wind SpeedMPH, Max Gust SpeedMPH,PrecipitationIn, CloudCover, Events, WindDirDegrees
2013-7-1,81,70,59,66,63,60,100,78,50,30.00,29.93,29.86,10,9,3,10,1,17,0.00,1,,276
2013-7-2,81,70,59,65,62,59,100,89,49,30.12,30.03,29.96,10,5,0,8,1,,0.00,4,Fog,300
2013-7-3,83,72,61,70,66,62,100,86,47,30.17,30.13,30.09,10,8,1,7,1,,0.11,3,Rain-Thunderstorm,78
2013-7-4,72,68,65,72,69,66,100,100,100,30.14,30.09,30.04,10,5,1,9,3,,1.22,8,Rain-Thunderstorm,101
2013-7-5,75,70,64,74,70,64,100,99,88,30.18,30.13,30.07,10,5,0,12,6,17,2.38,7,Fog-Rain-Thunderstorm,152
2013-7-6,78,72,66,72,69,66,100,91,74,30.19,30.14,30.09,10,9,3,8,3,,0.00,5,Rain,136
2013-7-7,82,76,70,74,71,69,100,91,69,30.21,30.16,30.12,10,7,1,13,2,,0.10,6,Rain,190
2013-7-8,86,77,68,75,72,69,100,88,60,30.26,30.21,30.17,10,9,4,6,2,,0.00,5,,143
2013-7-9,90,80,69,76,73,70,100,89,59,30.26,30.20,30.14,10,6,0,8,2,,0.00,2,Fog,206
2013-7-10,88,80,72,79,74,72,100,85,65,30.17,30.10,30.03,10,8,0,16,3,20,0.21,2,Fog-Rain-Thunderstorm,272
2013-7-11,86,77,68,76,72,69,100,91,70,30.07,30.02,29.97,10,8,1,10,3,16,0.45,4,Rain-Thunderstorm,182
2013-7-12,84,74,65,71,67,60,100,78,58,30.06,30.03,30.00,10,9,6,9,3,,0.00,0,,16
2013-7-13,86,72,59,72,66,58,100,78,51,30.11,30.06,30.01,10,10,6,7,1,,0.00,0,Thunderstorm,110
2013-7-14,81,75,69,75,72,69,100,91,70,30.20,30.13,30.08,10,7,1,10,3,,0.23,4,Rain-Thunderstorm,189
2013-7-15,84,78,72,73,71,69,100,84,61,30.31,30.25,30.16,10,10,10,12,5,18,0.00,4,,113
2013-7-16,88,78,68,74,71,69,100,82,55,30.37,30.33,30.30,10,10,5,10,2,,0.00,2,,108
2013-7-17,92,79,66,77,72,67,100,81,50,30.38,30.31,30.25,10,8,2,6,0,,0.00,1,,10
2013-7-18,88,79,70,74,71,69,100,81,55,30.26,30.20,30.14,10,10,8,8,2,,0.00,0,Thunderstorm,128
2013-7-19,88,77,66,73,71,67,100,79,53,30.19,30.13,30.06,10,9,4,8,1,,0.00,0,,207
2013-7-20,88,78,68,75,72,68,100,82,57,30.11,30.07,29.98,10,9,1,9,3,,0.00,0,,204
2013-7-21,86,77,68,75,72,68,100,90,63,30.11,30.05,30.00,10,8,0,9,3,,0.39,4,Rain-Thunderstorm,204
2013-7-22,75,72,68,73,70,68,100,96,84,30.09,30.04,29.96,10,8,1,10,7,22,0.09,5,Rain,223
2013-7-23,75,72,68,76,71,68,100,97,83,30.06,30.00,29.93,10,6,0,21,5,25,1.45,6,Fog-Rain-Thunderstorm,252
2013-7-24,83,76,68,75,71,68,100,96,69,30.01,29.95,29.91,10,5,1,7,0,,0.06,4,Rain,360
2013-7-25,83,74,66,72,67,63,100,84,49,30.12,30.04,29.96,10,8,1,9,1,,0.00,2,,347
2013-7-26,84,72,60,69,64,61,100,86,51,30.14,30.10,30.06,10,6,1,6,1,,0.00,0,,287
2013-7-27,82,75,68,70,68,64,100,83,54,30.06,30.03,29.99,10,9,4,8,2,,0.00,1,,285
2013-7-28,83,74,65,69,67,64,100,81,60,30.15,30.09,30.02,10,10,5,7,2,,0.00,1,,18
2013-7-29,84,74,63,67,63,61,100,75,48,30.25,30.21,30.14,10,10,10,6,1,,0.00,0,,25
2013-7-30,90,74,59,76,68,60,100,80,55,30.27,30.20,30.12,10,10,8,13,2,21,0.00,0,Rain-Thunderstorm,188
2013-7-31,86,80,73,76,74,72,100,90,63,30.16,30.09,30.02,10,8,2,9,3,,0.05,4,Rain-Thunderstorm,238